sensor_id;sensor_type;location;lat;lon;timestamp;P1;durP1;ratioP1;P2;durP2;ratioP2
56457;SDS011;42360;42.918;12.366;2023-01-25T00:00:44;5.18;;;4.03;;
56457;SDS011;42360;42.918;12.366;2023-01-25T00:03:10;8.10;;;4.65;;
56457;SDS011;42360;42.918;12.366;2023-01-25T00:05:35;5.05;;;3.55;;
56457;SDS011;42360;42.918;12.366;2023-01-25T00:08:01;5.40;;;3.78;;
56457;SDS011;42360;42.918;12.366;2023-01-25T00:10:27;6.55;;;3.65;;
56457;SDS011;42360;42.918;12.366;2023-01-25T00:12:54;5.32;;;3.28;;
56457;SDS011;42360;42.918;12.366;2023-01-25T00:15:20;5.55;;;3.72;;
56457;SDS011;42360;42.918;12.366;2023-01-25T00:17:46;4.55;;;3.67;;
56457;SDS011;42360;42.918;12.366;2023-01-25T00:20:12;7.38;;;4.05;;
56457;SDS011;42360;42.918;12.366;2023-01-25T00:22:37;9.10;;;3.60;;
56457;SDS011;42360;42.918;12.366;2023-01-25T00:25:03;6.85;;;4.57;;
56457;SDS011;42360;42.918;12.366;2023-01-25T00:27:29;4.95;;;4.07;;
56457;SDS011;42360;42.918;12.366;2023-01-25T00:29:54;7.53;;;4.35;;
56457;SDS011;42360;42.918;12.366;2023-01-25T00:34:46;2.65;;;2.45;;
56457;SDS011;42360;42.918;12.366;2023-01-25T00:37:19;5.13;;;2.92;;
56457;SDS011;42360;42.918;12.366;2023-01-25T00:39:49;4.22;;;2.97;;
56457;SDS011;42360;42.918;12.366;2023-01-25T00:42:15;6.93;;;3.40;;
56457;SDS011;42360;42.918;12.366;2023-01-25T00:44:42;5.13;;;3.38;;
56457;SDS011;42360;42.918;12.366;2023-01-25T00:47:08;4.22;;;2.88;;
56457;SDS011;42360;42.918;12.366;2023-01-25T00:49:35;8.77;;;4.03;;
56457;SDS011;42360;42.918;12.366;2023-01-25T00:52:01;4.57;;;3.60;;
56457;SDS011;42360;42.918;12.366;2023-01-25T00:54:27;4.50;;;2.97;;
56457;SDS011;42360;42.918;12.366;2023-01-25T00:56:53;5.95;;;2.90;;
56457;SDS011;42360;42.918;12.366;2023-01-25T00:59:20;4.20;;;2.85;;
56457;SDS011;42360;42.918;12.366;2023-01-25T01:01:46;5.57;;;3.17;;
56457;SDS011;42360;42.918;12.366;2023-01-25T01:04:12;3.83;;;3.03;;
56457;SDS011;42360;42.918;12.366;2023-01-25T01:06:38;3.92;;;2.70;;
56457;SDS011;42360;42.918;12.366;2023-01-25T01:09:04;4.32;;;3.60;;
56457;SDS011;42360;42.918;12.366;2023-01-25T01:11:31;4.65;;;2.95;;
56457;SDS011;42360;42.918;12.366;2023-01-25T01:13:57;4.55;;;2.70;;
56457;SDS011;42360;42.918;12.366;2023-01-25T01:16:23;4.47;;;3.25;;
56457;SDS011;42360;42.918;12.366;2023-01-25T01:18:49;4.95;;;3.28;;
56457;SDS011;42360;42.918;12.366;2023-01-25T01:21:15;5.90;;;3.75;;
56457;SDS011;42360;42.918;12.366;2023-01-25T01:23:41;4.22;;;2.70;;
56457;SDS011;42360;42.918;12.366;2023-01-25T01:26:07;5.28;;;3.03;;
56457;SDS011;42360;42.918;12.366;2023-01-25T01:28:36;3.65;;;3.28;;
56457;SDS011;42360;42.918;12.366;2023-01-25T01:31:05;3.42;;;2.92;;
56457;SDS011;42360;42.918;12.366;2023-01-25T01:33:32;3.72;;;2.83;;
56457;SDS011;42360;42.918;12.366;2023-01-25T01:35:58;4.47;;;3.30;;
56457;SDS011;42360;42.918;12.366;2023-01-25T01:38:24;4.93;;;3.22;;
56457;SDS011;42360;42.918;12.366;2023-01-25T01:40:49;7.50;;;4.18;;
56457;SDS011;42360;42.918;12.366;2023-01-25T01:43:19;4.32;;;3.45;;
56457;SDS011;42360;42.918;12.366;2023-01-25T01:45:50;4.85;;;2.75;;
56457;SDS011;42360;42.918;12.366;2023-01-25T01:51:18;5.15;;;2.65;;
56457;SDS011;42360;42.918;12.366;2023-01-25T01:53:59;5.28;;;3.38;;
56457;SDS011;42360;42.918;12.366;2023-01-25T01:57:13;5.45;;;3.25;;
56457;SDS011;42360;42.918;12.366;2023-01-25T01:59:19;4.82;;;3.03;;
56457;SDS011;42360;42.918;12.366;2023-01-25T02:01:47;5.97;;;3.17;;
56457;SDS011;42360;42.918;12.366;2023-01-25T02:04:12;4.13;;;2.95;;
56457;SDS011;42360;42.918;12.366;2023-01-25T02:06:52;3.90;;;2.97;;
56457;SDS011;42360;42.918;12.366;2023-01-25T02:09:21;3.42;;;2.47;;
56457;SDS011;42360;42.918;12.366;2023-01-25T02:11:48;5.22;;;3.50;;
56457;SDS011;42360;42.918;12.366;2023-01-25T02:14:16;6.00;;;3.30;;
56457;SDS011;42360;42.918;12.366;2023-01-25T02:16:41;5.90;;;3.60;;
56457;SDS011;42360;42.918;12.366;2023-01-25T02:19:08;5.75;;;3.33;;
56457;SDS011;42360;42.918;12.366;2023-01-25T02:21:38;4.40;;;2.90;;
56457;SDS011;42360;42.918;12.366;2023-01-25T02:24:06;5.40;;;3.15;;
56457;SDS011;42360;42.918;12.366;2023-01-25T02:26:36;7.83;;;3.70;;
56457;SDS011;42360;42.918;12.366;2023-01-25T02:29:02;5.30;;;3.42;;
56457;SDS011;42360;42.918;12.366;2023-01-25T02:31:29;4.57;;;3.03;;
56457;SDS011;42360;42.918;12.366;2023-01-25T02:33:55;6.05;;;3.78;;
56457;SDS011;42360;42.918;12.366;2023-01-25T02:36:25;5.32;;;3.22;;
56457;SDS011;42360;42.918;12.366;2023-01-25T02:43:44;4.50;;;2.63;;
56457;SDS011;42360;42.918;12.366;2023-01-25T02:46:14;5.20;;;3.45;;
56457;SDS011;42360;42.918;12.366;2023-01-25T02:48:44;4.05;;;3.20;;
56457;SDS011;42360;42.918;12.366;2023-01-25T02:51:09;5.97;;;3.47;;
56457;SDS011;42360;42.918;12.366;2023-01-25T02:53:35;4.05;;;3.30;;
56457;SDS011;42360;42.918;12.366;2023-01-25T02:56:01;5.22;;;3.22;;
56457;SDS011;42360;42.918;12.366;2023-01-25T02:58:26;6.80;;;3.38;;
56457;SDS011;42360;42.918;12.366;2023-01-25T03:00:52;4.15;;;3.05;;
56457;SDS011;42360;42.918;12.366;2023-01-25T03:03:18;6.32;;;3.15;;
56457;SDS011;42360;42.918;12.366;2023-01-25T03:05:43;5.28;;;3.15;;
56457;SDS011;42360;42.918;12.366;2023-01-25T03:08:09;3.13;;;2.50;;
56457;SDS011;42360;42.918;12.366;2023-01-25T03:10:35;5.22;;;3.35;;
56457;SDS011;42360;42.918;12.366;2023-01-25T03:13:00;5.00;;;3.35;;
56457;SDS011;42360;42.918;12.366;2023-01-25T03:15:26;4.43;;;3.15;;
56457;SDS011;42360;42.918;12.366;2023-01-25T03:17:52;5.05;;;3.15;;
56457;SDS011;42360;42.918;12.366;2023-01-25T03:20:18;5.50;;;3.28;;
56457;SDS011;42360;42.918;12.366;2023-01-25T03:22:43;9.38;;;3.72;;
56457;SDS011;42360;42.918;12.366;2023-01-25T03:25:09;5.30;;;2.95;;
56457;SDS011;42360;42.918;12.366;2023-01-25T03:27:34;7.40;;;3.08;;
56457;SDS011;42360;42.918;12.366;2023-01-25T03:30:00;4.53;;;2.78;;
56457;SDS011;42360;42.918;12.366;2023-01-25T03:32:25;7.03;;;3.85;;
56457;SDS011;42360;42.918;12.366;2023-01-25T03:34:51;3.90;;;2.85;;
56457;SDS011;42360;42.918;12.366;2023-01-25T03:37:17;3.55;;;2.55;;
56457;SDS011;42360;42.918;12.366;2023-01-25T03:39:42;5.15;;;3.15;;
56457;SDS011;42360;42.918;12.366;2023-01-25T03:42:08;3.90;;;2.55;;
56457;SDS011;42360;42.918;12.366;2023-01-25T03:44:34;4.47;;;2.35;;
56457;SDS011;42360;42.918;12.366;2023-01-25T03:46:59;4.03;;;2.45;;
56457;SDS011;42360;42.918;12.366;2023-01-25T03:49:25;3.53;;;3.13;;
56457;SDS011;42360;42.918;12.366;2023-01-25T03:51:52;4.53;;;2.90;;
56457;SDS011;42360;42.918;12.366;2023-01-25T03:54:19;4.30;;;2.67;;
56457;SDS011;42360;42.918;12.366;2023-01-25T03:56:45;3.85;;;2.70;;
56457;SDS011;42360;42.918;12.366;2023-01-25T03:59:10;3.65;;;2.50;;
56457;SDS011;42360;42.918;12.366;2023-01-25T04:01:36;3.13;;;2.53;;
56457;SDS011;42360;42.918;12.366;2023-01-25T04:04:02;4.28;;;2.55;;
56457;SDS011;42360;42.918;12.366;2023-01-25T04:06:28;4.50;;;2.50;;
56457;SDS011;42360;42.918;12.366;2023-01-25T04:08:53;5.47;;;3.22;;
56457;SDS011;42360;42.918;12.366;2023-01-25T04:11:19;3.50;;;3.15;;
56457;SDS011;42360;42.918;12.366;2023-01-25T04:13:44;4.88;;;2.85;;
56457;SDS011;42360;42.918;12.366;2023-01-25T04:16:10;4.25;;;2.60;;
56457;SDS011;42360;42.918;12.366;2023-01-25T04:18:36;2.78;;;2.40;;
56457;SDS011;42360;42.918;12.366;2023-01-25T04:21:02;3.17;;;2.53;;
56457;SDS011;42360;42.918;12.366;2023-01-25T04:23:28;2.90;;;2.40;;
56457;SDS011;42360;42.918;12.366;2023-01-25T04:26:00;2.78;;;2.30;;
56457;SDS011;42360;42.918;12.366;2023-01-25T04:28:29;3.28;;;2.30;;
56457;SDS011;42360;42.918;12.366;2023-01-25T04:30:55;4.82;;;3.08;;
56457;SDS011;42360;42.918;12.366;2023-01-25T04:33:21;3.53;;;2.55;;
56457;SDS011;42360;42.918;12.366;2023-01-25T04:35:47;4.70;;;2.47;;
56457;SDS011;42360;42.918;12.366;2023-01-25T04:38:12;3.35;;;2.75;;
56457;SDS011;42360;42.918;12.366;2023-01-25T04:40:38;3.83;;;2.55;;
56457;SDS011;42360;42.918;12.366;2023-01-25T04:43:04;3.88;;;2.47;;
56457;SDS011;42360;42.918;12.366;2023-01-25T04:45:33;2.30;;;2.08;;
56457;SDS011;42360;42.918;12.366;2023-01-25T04:48:04;3.50;;;2.70;;
56457;SDS011;42360;42.918;12.366;2023-01-25T04:50:33;3.20;;;2.17;;
56457;SDS011;42360;42.918;12.366;2023-01-25T04:53:02;4.85;;;1.98;;
56457;SDS011;42360;42.918;12.366;2023-01-25T04:55:28;4.80;;;3.05;;
56457;SDS011;42360;42.918;12.366;2023-01-25T04:57:54;2.90;;;2.42;;
56457;SDS011;42360;42.918;12.366;2023-01-25T05:00:19;2.65;;;2.40;;
56457;SDS011;42360;42.918;12.366;2023-01-25T05:02:45;3.65;;;2.55;;
56457;SDS011;42360;42.918;12.366;2023-01-25T05:05:11;2.13;;;1.90;;
56457;SDS011;42360;42.918;12.366;2023-01-25T05:07:37;3.33;;;2.10;;
56457;SDS011;42360;42.918;12.366;2023-01-25T05:10:03;4.93;;;3.45;;
56457;SDS011;42360;42.918;12.366;2023-01-25T05:12:29;4.15;;;3.00;;
56457;SDS011;42360;42.918;12.366;2023-01-25T05:14:55;6.78;;;4.20;;
56457;SDS011;42360;42.918;12.366;2023-01-25T05:17:20;7.90;;;5.03;;
56457;SDS011;42360;42.918;12.366;2023-01-25T05:19:46;4.78;;;3.38;;
56457;SDS011;42360;42.918;12.366;2023-01-25T05:22:13;5.28;;;3.38;;
56457;SDS011;42360;42.918;12.366;2023-01-25T05:24:41;6.82;;;4.10;;
56457;SDS011;42360;42.918;12.366;2023-01-25T05:27:09;4.35;;;3.40;;
56457;SDS011;42360;42.918;12.366;2023-01-25T05:29:40;4.07;;;2.80;;
56457;SDS011;42360;42.918;12.366;2023-01-25T05:32:14;4.43;;;2.78;;
56457;SDS011;42360;42.918;12.366;2023-01-25T05:34:41;3.35;;;2.67;;
56457;SDS011;42360;42.918;12.366;2023-01-25T05:37:07;3.45;;;2.10;;
56457;SDS011;42360;42.918;12.366;2023-01-25T05:39:33;4.15;;;2.60;;
56457;SDS011;42360;42.918;12.366;2023-01-25T05:41:59;4.90;;;3.13;;
56457;SDS011;42360;42.918;12.366;2023-01-25T05:44:25;5.22;;;3.10;;
56457;SDS011;42360;42.918;12.366;2023-01-25T05:46:50;4.45;;;3.47;;
56457;SDS011;42360;42.918;12.366;2023-01-25T05:49:16;3.85;;;2.90;;
56457;SDS011;42360;42.918;12.366;2023-01-25T05:51:42;6.43;;;3.72;;
56457;SDS011;42360;42.918;12.366;2023-01-25T05:54:11;3.10;;;2.35;;
56457;SDS011;42360;42.918;12.366;2023-01-25T05:56:38;3.40;;;2.80;;
56457;SDS011;42360;42.918;12.366;2023-01-25T05:59:03;5.43;;;3.03;;
56457;SDS011;42360;42.918;12.366;2023-01-25T06:01:29;4.28;;;2.90;;
56457;SDS011;42360;42.918;12.366;2023-01-25T06:03:55;4.78;;;2.50;;
56457;SDS011;42360;42.918;12.366;2023-01-25T06:06:20;4.78;;;2.55;;
56457;SDS011;42360;42.918;12.366;2023-01-25T06:08:47;3.05;;;2.58;;
56457;SDS011;42360;42.918;12.366;2023-01-25T06:11:13;5.35;;;3.03;;
56457;SDS011;42360;42.918;12.366;2023-01-25T06:13:40;6.32;;;3.78;;
56457;SDS011;42360;42.918;12.366;2023-01-25T06:16:07;7.80;;;3.72;;
56457;SDS011;42360;42.918;12.366;2023-01-25T06:18:33;5.75;;;3.65;;
56457;SDS011;42360;42.918;12.366;2023-01-25T06:20:59;4.07;;;3.28;;
56457;SDS011;42360;42.918;12.366;2023-01-25T06:23:26;5.28;;;3.35;;
56457;SDS011;42360;42.918;12.366;2023-01-25T06:25:56;4.47;;;3.10;;
56457;SDS011;42360;42.918;12.366;2023-01-25T06:28:22;4.97;;;3.20;;
56457;SDS011;42360;42.918;12.366;2023-01-25T06:30:47;5.43;;;2.83;;
56457;SDS011;42360;42.918;12.366;2023-01-25T06:33:13;4.68;;;3.28;;
56457;SDS011;42360;42.918;12.366;2023-01-25T06:35:39;3.90;;;3.08;;
56457;SDS011;42360;42.918;12.366;2023-01-25T06:38:05;7.20;;;3.78;;
56457;SDS011;42360;42.918;12.366;2023-01-25T06:40:31;5.25;;;4.18;;
56457;SDS011;42360;42.918;12.366;2023-01-25T06:43:07;4.47;;;4.05;;
56457;SDS011;42360;42.918;12.366;2023-01-25T06:45:33;23.70;;;10.55;;
56457;SDS011;42360;42.918;12.366;2023-01-25T06:47:59;70.18;;;29.02;;
56457;SDS011;42360;42.918;12.366;2023-01-25T06:50:24;24.40;;;11.23;;
56457;SDS011;42360;42.918;12.366;2023-01-25T06:52:51;14.73;;;8.82;;
56457;SDS011;42360;42.918;12.366;2023-01-25T06:55:17;8.02;;;5.07;;
56457;SDS011;42360;42.918;12.366;2023-01-25T06:57:43;12.65;;;7.30;;
56457;SDS011;42360;42.918;12.366;2023-01-25T07:00:08;18.05;;;11.32;;
56457;SDS011;42360;42.918;12.366;2023-01-25T07:02:35;18.95;;;11.75;;
56457;SDS011;42360;42.918;12.366;2023-01-25T07:05:01;15.02;;;11.02;;
56457;SDS011;42360;42.918;12.366;2023-01-25T07:07:26;12.50;;;7.43;;
56457;SDS011;42360;42.918;12.366;2023-01-25T07:09:52;9.55;;;5.50;;
56457;SDS011;42360;42.918;12.366;2023-01-25T07:12:17;5.53;;;3.90;;
56457;SDS011;42360;42.918;12.366;2023-01-25T07:14:44;6.35;;;4.43;;
56457;SDS011;42360;42.918;12.366;2023-01-25T07:17:12;8.32;;;4.43;;
56457;SDS011;42360;42.918;12.366;2023-01-25T07:19:38;8.48;;;6.38;;
56457;SDS011;42360;42.918;12.366;2023-01-25T07:22:03;7.20;;;4.70;;
56457;SDS011;42360;42.918;12.366;2023-01-25T07:24:29;5.53;;;4.50;;
56457;SDS011;42360;42.918;12.366;2023-01-25T07:26:55;9.85;;;5.75;;
56457;SDS011;42360;42.918;12.366;2023-01-25T07:29:20;7.93;;;5.10;;
56457;SDS011;42360;42.918;12.366;2023-01-25T07:31:46;9.80;;;6.25;;
56457;SDS011;42360;42.918;12.366;2023-01-25T07:34:11;10.52;;;6.80;;
56457;SDS011;42360;42.918;12.366;2023-01-25T07:36:38;6.35;;;4.25;;
56457;SDS011;42360;42.918;12.366;2023-01-25T07:39:04;8.00;;;5.35;;
56457;SDS011;42360;42.918;12.366;2023-01-25T07:41:30;7.88;;;5.55;;
56457;SDS011;42360;42.918;12.366;2023-01-25T07:43:56;9.07;;;5.75;;
56457;SDS011;42360;42.918;12.366;2023-01-25T07:46:22;8.57;;;4.88;;
56457;SDS011;42360;42.918;12.366;2023-01-25T07:48:49;5.35;;;4.85;;
56457;SDS011;42360;42.918;12.366;2023-01-25T07:51:16;8.60;;;5.97;;
56457;SDS011;42360;42.918;12.366;2023-01-25T07:53:57;11.32;;;5.82;;
56457;SDS011;42360;42.918;12.366;2023-01-25T07:56:35;11.50;;;6.28;;
56457;SDS011;42360;42.918;12.366;2023-01-25T07:59:04;19.10;;;7.35;;
56457;SDS011;42360;42.918;12.366;2023-01-25T08:01:32;19.67;;;8.48;;
56457;SDS011;42360;42.918;12.366;2023-01-25T08:03:59;14.57;;;6.55;;
56457;SDS011;42360;42.918;12.366;2023-01-25T08:06:26;39.03;;;10.52;;
56457;SDS011;42360;42.918;12.366;2023-01-25T08:09:00;60.47;;;30.73;;
56457;SDS011;42360;42.918;12.366;2023-01-25T08:11:28;32.35;;;17.50;;
56457;SDS011;42360;42.918;12.366;2023-01-25T08:13:55;13.77;;;9.32;;
56457;SDS011;42360;42.918;12.366;2023-01-25T08:16:22;8.15;;;5.40;;
56457;SDS011;42360;42.918;12.366;2023-01-25T08:18:50;8.38;;;4.93;;
56457;SDS011;42360;42.918;12.366;2023-01-25T08:21:17;7.75;;;4.53;;
56457;SDS011;42360;42.918;12.366;2023-01-25T08:23:42;7.35;;;5.13;;
56457;SDS011;42360;42.918;12.366;2023-01-25T08:26:09;8.70;;;5.47;;
56457;SDS011;42360;42.918;12.366;2023-01-25T08:28:36;9.18;;;5.40;;
56457;SDS011;42360;42.918;12.366;2023-01-25T08:31:07;10.25;;;5.97;;
56457;SDS011;42360;42.918;12.366;2023-01-25T08:33:37;9.68;;;5.05;;
56457;SDS011;42360;42.918;12.366;2023-01-25T08:36:03;6.30;;;4.65;;
56457;SDS011;42360;42.918;12.366;2023-01-25T08:38:30;6.55;;;4.75;;
56457;SDS011;42360;42.918;12.366;2023-01-25T08:41:03;9.48;;;5.60;;
56457;SDS011;42360;42.918;12.366;2023-01-25T08:43:30;6.70;;;6.05;;
56457;SDS011;42360;42.918;12.366;2023-01-25T08:45:56;10.38;;;5.55;;
56457;SDS011;42360;42.918;12.366;2023-01-25T08:48:22;8.40;;;5.05;;
56457;SDS011;42360;42.918;12.366;2023-01-25T08:50:47;9.85;;;5.95;;
56457;SDS011;42360;42.918;12.366;2023-01-25T08:53:13;8.80;;;5.40;;
56457;SDS011;42360;42.918;12.366;2023-01-25T08:55:39;8.38;;;4.95;;
56457;SDS011;42360;42.918;12.366;2023-01-25T08:58:10;9.55;;;6.35;;
56457;SDS011;42360;42.918;12.366;2023-01-25T09:00:37;9.05;;;7.38;;
56457;SDS011;42360;42.918;12.366;2023-01-25T09:03:03;13.70;;;9.75;;
56457;SDS011;42360;42.918;12.366;2023-01-25T09:05:29;11.38;;;7.97;;
56457;SDS011;42360;42.918;12.366;2023-01-25T09:07:55;13.73;;;7.68;;
56457;SDS011;42360;42.918;12.366;2023-01-25T09:10:20;9.60;;;6.95;;
56457;SDS011;42360;42.918;12.366;2023-01-25T09:12:46;6.45;;;4.72;;
56457;SDS011;42360;42.918;12.366;2023-01-25T09:15:12;6.57;;;5.18;;
56457;SDS011;42360;42.918;12.366;2023-01-25T09:17:37;5.75;;;4.50;;
56457;SDS011;42360;42.918;12.366;2023-01-25T09:20:05;6.43;;;4.68;;
56457;SDS011;42360;42.918;12.366;2023-01-25T09:22:31;6.93;;;5.65;;
56457;SDS011;42360;42.918;12.366;2023-01-25T09:24:57;12.55;;;8.68;;
56457;SDS011;42360;42.918;12.366;2023-01-25T09:27:22;7.95;;;5.82;;
56457;SDS011;42360;42.918;12.366;2023-01-25T09:29:48;17.90;;;11.15;;
56457;SDS011;42360;42.918;12.366;2023-01-25T09:32:13;11.60;;;7.25;;
56457;SDS011;42360;42.918;12.366;2023-01-25T09:34:39;20.38;;;12.27;;
56457;SDS011;42360;42.918;12.366;2023-01-25T09:37:05;21.08;;;9.90;;
56457;SDS011;42360;42.918;12.366;2023-01-25T09:39:30;6.43;;;4.63;;
56457;SDS011;42360;42.918;12.366;2023-01-25T09:44:53;9.25;;;6.00;;
56457;SDS011;42360;42.918;12.366;2023-01-25T09:53:06;6.15;;;3.38;;
56457;SDS011;42360;42.918;12.366;2023-01-25T09:55:36;4.20;;;2.65;;
56457;SDS011;42360;42.918;12.366;2023-01-25T09:58:02;5.05;;;3.08;;
56457;SDS011;42360;42.918;12.366;2023-01-25T10:00:46;3.42;;;3.08;;
56457;SDS011;42360;42.918;12.366;2023-01-25T10:06:22;4.63;;;3.40;;
56457;SDS011;42360;42.918;12.366;2023-01-25T10:09:09;3.03;;;2.78;;
56457;SDS011;42360;42.918;12.366;2023-01-25T10:12:04;2.60;;;2.40;;
56457;SDS011;42360;42.918;12.366;2023-01-25T10:14:38;4.30;;;3.00;;
56457;SDS011;42360;42.918;12.366;2023-01-25T10:17:45;3.25;;;2.95;;
56457;SDS011;42360;42.918;12.366;2023-01-25T10:20:02;2.60;;;2.40;;
56457;SDS011;42360;42.918;12.366;2023-01-25T10:22:44;3.42;;;2.88;;
56457;SDS011;42360;42.918;12.366;2023-01-25T10:25:22;3.35;;;3.03;;
56457;SDS011;42360;42.918;12.366;2023-01-25T10:27:55;4.60;;;3.55;;
56457;SDS011;42360;42.918;12.366;2023-01-25T10:30:33;5.78;;;4.15;;
56457;SDS011;42360;42.918;12.366;2023-01-25T10:33:10;3.75;;;3.00;;
56457;SDS011;42360;42.918;12.366;2023-01-25T10:35:38;3.20;;;1.98;;
56457;SDS011;42360;42.918;12.366;2023-01-25T10:38:23;1.70;;;1.58;;
56457;SDS011;42360;42.918;12.366;2023-01-25T10:41:20;2.83;;;2.53;;
56457;SDS011;42360;42.918;12.366;2023-01-25T10:43:51;5.53;;;3.42;;
56457;SDS011;42360;42.918;12.366;2023-01-25T10:46:36;2.80;;;2.60;;
56457;SDS011;42360;42.918;12.366;2023-01-25T10:52:24;4.28;;;3.88;;
56457;SDS011;42360;42.918;12.366;2023-01-25T10:57:37;7.68;;;6.93;;
56457;SDS011;42360;42.918;12.366;2023-01-25T11:00:27;2.60;;;2.47;;
56457;SDS011;42360;42.918;12.366;2023-01-25T11:02:54;2.35;;;2.20;;
56457;SDS011;42360;42.918;12.366;2023-01-25T11:05:35;3.33;;;3.03;;
56457;SDS011;42360;42.918;12.366;2023-01-25T11:08:25;3.10;;;2.90;;
56457;SDS011;42360;42.918;12.366;2023-01-25T11:13:26;2.70;;;2.50;;
56457;SDS011;42360;42.918;12.366;2023-01-25T11:15:54;2.50;;;2.30;;
56457;SDS011;42360;42.918;12.366;2023-01-25T11:18:47;2.42;;;1.90;;
56457;SDS011;42360;42.918;12.366;2023-01-25T11:21:18;2.92;;;2.45;;
56457;SDS011;42360;42.918;12.366;2023-01-25T11:24:02;2.55;;;2.22;;
56457;SDS011;42360;42.918;12.366;2023-01-25T11:26:29;12.68;;;8.63;;
56457;SDS011;42360;42.918;12.366;2023-01-25T11:31:49;5.53;;;3.65;;
56457;SDS011;42360;42.918;12.366;2023-01-25T11:34:23;2.33;;;2.13;;
56457;SDS011;42360;42.918;12.366;2023-01-25T11:42:54;2.25;;;2.05;;
56457;SDS011;42360;42.918;12.366;2023-01-25T11:56:57;3.05;;;2.08;;
56457;SDS011;42360;42.918;12.366;2023-01-25T12:02:18;2.75;;;1.98;;
56457;SDS011;42360;42.918;12.366;2023-01-25T12:15:46;2.15;;;1.75;;
56457;SDS011;42360;42.918;12.366;2023-01-25T12:26:29;1.80;;;1.70;;
56457;SDS011;42360;42.918;12.366;2023-01-25T12:29:23;2.10;;;1.80;;
56457;SDS011;42360;42.918;12.366;2023-01-25T12:32:02;1.65;;;1.55;;
56457;SDS011;42360;42.918;12.366;2023-01-25T12:34:39;1.83;;;1.73;;
56457;SDS011;42360;42.918;12.366;2023-01-25T12:40:03;7.93;;;1.70;;
56457;SDS011;42360;42.918;12.366;2023-01-25T12:42:43;1.77;;;1.30;;
56457;SDS011;42360;42.918;12.366;2023-01-25T12:45:13;2.27;;;1.50;;
56457;SDS011;42360;42.918;12.366;2023-01-25T12:47:52;2.28;;;1.60;;
56457;SDS011;42360;42.918;12.366;2023-01-25T12:50:22;1.50;;;1.45;;
56457;SDS011;42360;42.918;12.366;2023-01-25T12:52:56;1.42;;;1.33;;
56457;SDS011;42360;42.918;12.366;2023-01-25T12:55:25;2.33;;;1.60;;
56457;SDS011;42360;42.918;12.366;2023-01-25T13:03:17;19.45;;;9.55;;
56457;SDS011;42360;42.918;12.366;2023-01-25T13:08:56;9.85;;;5.53;;
56457;SDS011;42360;42.918;12.366;2023-01-25T13:14:30;3.42;;;2.85;;
56457;SDS011;42360;42.918;12.366;2023-01-25T13:27:40;3.67;;;2.50;;
56457;SDS011;42360;42.918;12.366;2023-01-25T13:35:28;2.60;;;1.92;;
56457;SDS011;42360;42.918;12.366;2023-01-25T13:37:59;2.60;;;1.95;;
56457;SDS011;42360;42.918;12.366;2023-01-25T13:40:43;3.72;;;2.25;;
56457;SDS011;42360;42.918;12.366;2023-01-25T13:45:37;4.70;;;4.30;;
56457;SDS011;42360;42.918;12.366;2023-01-25T13:50:34;2.20;;;2.00;;
56457;SDS011;42360;42.918;12.366;2023-01-25T13:55:43;2.80;;;2.60;;
56457;SDS011;42360;42.918;12.366;2023-01-25T13:58:24;2.83;;;2.50;;
56457;SDS011;42360;42.918;12.366;2023-01-25T14:00:52;2.00;;;1.80;;
56457;SDS011;42360;42.918;12.366;2023-01-25T14:03:27;3.17;;;2.40;;
56457;SDS011;42360;42.918;12.366;2023-01-25T14:05:56;2.97;;;2.13;;
56457;SDS011;42360;42.918;12.366;2023-01-25T14:08:22;2.08;;;1.88;;
56457;SDS011;42360;42.918;12.366;2023-01-25T14:10:49;2.72;;;1.90;;
56457;SDS011;42360;42.918;12.366;2023-01-25T14:13:16;1.98;;;1.88;;
56457;SDS011;42360;42.918;12.366;2023-01-25T14:15:55;2.97;;;1.67;;
56457;SDS011;42360;42.918;12.366;2023-01-25T14:18:40;3.47;;;2.67;;
56457;SDS011;42360;42.918;12.366;2023-01-25T14:21:17;3.17;;;2.88;;
56457;SDS011;42360;42.918;12.366;2023-01-25T14:23:44;4.50;;;3.30;;
56457;SDS011;42360;42.918;12.366;2023-01-25T14:26:31;2.67;;;2.47;;
56457;SDS011;42360;42.918;12.366;2023-01-25T14:28:56;2.00;;;1.80;;
56457;SDS011;42360;42.918;12.366;2023-01-25T14:31:27;2.35;;;2.15;;
56457;SDS011;42360;42.918;12.366;2023-01-25T14:33:57;2.53;;;2.30;;
56457;SDS011;42360;42.918;12.366;2023-01-25T14:36:27;3.95;;;2.72;;
56457;SDS011;42360;42.918;12.366;2023-01-25T14:38:55;4.25;;;3.10;;
56457;SDS011;42360;42.918;12.366;2023-01-25T14:41:36;3.75;;;2.50;;
56457;SDS011;42360;42.918;12.366;2023-01-25T14:44:10;2.28;;;2.10;;
56457;SDS011;42360;42.918;12.366;2023-01-25T14:46:37;3.00;;;2.05;;
56457;SDS011;42360;42.918;12.366;2023-01-25T14:51:46;4.50;;;3.05;;
56457;SDS011;42360;42.918;12.366;2023-01-25T14:54:21;2.90;;;2.47;;
56457;SDS011;42360;42.918;12.366;2023-01-25T14:56:52;3.63;;;2.20;;
56457;SDS011;42360;42.918;12.366;2023-01-25T15:04:54;4.93;;;3.58;;
56457;SDS011;42360;42.918;12.366;2023-01-25T15:13:01;5.15;;;3.15;;
56457;SDS011;42360;42.918;12.366;2023-01-25T15:15:30;4.93;;;3.15;;
56457;SDS011;42360;42.918;12.366;2023-01-25T15:17:57;3.15;;;2.83;;
56457;SDS011;42360;42.918;12.366;2023-01-25T15:20:34;2.83;;;2.60;;
56457;SDS011;42360;42.918;12.366;2023-01-25T15:23:04;3.38;;;2.33;;
56457;SDS011;42360;42.918;12.366;2023-01-25T15:25:30;3.17;;;2.65;;
56457;SDS011;42360;42.918;12.366;2023-01-25T15:27:56;3.55;;;2.42;;
56457;SDS011;42360;42.918;12.366;2023-01-25T15:30:21;4.15;;;2.25;;
56457;SDS011;42360;42.918;12.366;2023-01-25T15:32:47;4.60;;;2.70;;
56457;SDS011;42360;42.918;12.366;2023-01-25T15:35:14;3.50;;;2.10;;
56457;SDS011;42360;42.918;12.366;2023-01-25T15:37:43;3.60;;;2.63;;
56457;SDS011;42360;42.918;12.366;2023-01-25T15:40:09;3.67;;;2.22;;
56457;SDS011;42360;42.918;12.366;2023-01-25T15:42:36;2.70;;;2.30;;
56457;SDS011;42360;42.918;12.366;2023-01-25T15:45:02;3.90;;;3.30;;
56457;SDS011;42360;42.918;12.366;2023-01-25T15:47:28;3.53;;;2.88;;
56457;SDS011;42360;42.918;12.366;2023-01-25T15:49:54;2.08;;;1.88;;
56457;SDS011;42360;42.918;12.366;2023-01-25T15:52:20;3.67;;;2.50;;
56457;SDS011;42360;42.918;12.366;2023-01-25T15:54:45;3.40;;;2.75;;
56457;SDS011;42360;42.918;12.366;2023-01-25T15:57:24;4.35;;;3.45;;
56457;SDS011;42360;42.918;12.366;2023-01-25T15:59:53;3.50;;;2.70;;
56457;SDS011;42360;42.918;12.366;2023-01-25T16:02:21;2.97;;;2.45;;
56457;SDS011;42360;42.918;12.366;2023-01-25T16:04:47;3.65;;;2.65;;
56457;SDS011;42360;42.918;12.366;2023-01-25T16:07:23;3.50;;;2.72;;
56457;SDS011;42360;42.918;12.366;2023-01-25T16:09:50;4.50;;;3.20;;
56457;SDS011;42360;42.918;12.366;2023-01-25T16:12:16;4.65;;;3.10;;
56457;SDS011;42360;42.918;12.366;2023-01-25T16:14:42;8.82;;;3.53;;
56457;SDS011;42360;42.918;12.366;2023-01-25T16:17:14;4.10;;;3.08;;
56457;SDS011;42360;42.918;12.366;2023-01-25T16:19:41;9.38;;;6.10;;
56457;SDS011;42360;42.918;12.366;2023-01-25T16:22:06;8.50;;;6.38;;
56457;SDS011;42360;42.918;12.366;2023-01-25T16:24:32;11.77;;;7.78;;
56457;SDS011;42360;42.918;12.366;2023-01-25T16:26:58;11.05;;;7.35;;
56457;SDS011;42360;42.918;12.366;2023-01-25T16:29:25;11.45;;;7.00;;
56457;SDS011;42360;42.918;12.366;2023-01-25T16:31:51;9.77;;;6.18;;
56457;SDS011;42360;42.918;12.366;2023-01-25T16:34:17;5.28;;;3.72;;
56457;SDS011;42360;42.918;12.366;2023-01-25T16:36:44;4.05;;;2.97;;
56457;SDS011;42360;42.918;12.366;2023-01-25T16:39:15;3.17;;;2.33;;
56457;SDS011;42360;42.918;12.366;2023-01-25T16:41:45;3.92;;;2.70;;
56457;SDS011;42360;42.918;12.366;2023-01-25T16:44:12;4.40;;;2.88;;
56457;SDS011;42360;42.918;12.366;2023-01-25T16:46:37;3.58;;;2.53;;